createdAt,value
2022-09-17T00:01:41.823Z,41.48
2022-09-17T00:04:11.307Z,41.41
2022-09-17T00:06:38.903Z,41.68
2022-09-17T00:09:07.323Z,41.32
2022-09-17T00:11:36.597Z,41.75
2022-09-17T00:14:05.032Z,41.78
2022-09-17T00:16:35.493Z,41.47
2022-09-17T00:19:04.420Z,41.61
2022-09-17T00:21:32.783Z,41.71
2022-09-17T00:24:01.157Z,41.60
2022-09-17T00:26:29.180Z,41.78
2022-09-17T00:28:57.935Z,41.89
2022-09-17T00:31:26.319Z,41.61
2022-09-17T00:33:55.611Z,41.61
2022-09-17T00:36:23.646Z,41.82
2022-09-17T00:38:51.563Z,41.81
2022-09-17T00:41:19.392Z,42.13
2022-09-17T00:43:48.153Z,41.76
2022-09-17T00:46:26.996Z,41.89
2022-09-17T00:48:56.764Z,41.79
2022-09-17T00:51:28.568Z,42.13
2022-09-17T00:53:56.881Z,42.15
2022-09-17T00:56:26.660Z,41.94
2022-09-17T00:58:54.833Z,42.38
2022-09-17T01:01:22.473Z,42.25
2022-09-17T01:03:50.418Z,42.22
2022-09-17T01:06:23.350Z,42.63
2022-09-17T01:08:58.412Z,42.08
2022-09-17T01:11:32.252Z,42.28
2022-09-17T01:14:06.489Z,42.54
2022-09-17T01:16:38.729Z,42.09
2022-09-17T01:19:13.776Z,42.49
2022-09-17T01:21:51.300Z,42.07
2022-09-17T01:24:40.159Z,42.12
2022-09-17T01:27:21.720Z,42.54
2022-09-17T01:29:57.224Z,42.52
2022-09-17T01:32:30.648Z,42.22
2022-09-17T01:35:02.213Z,42.24
2022-09-17T01:37:33.114Z,42.76
2022-09-17T01:40:03.220Z,42.31
2022-09-17T01:42:36.412Z,42.38
2022-09-17T01:45:07.095Z,42.39
2022-09-17T01:47:38.751Z,42.31
2022-09-17T01:50:09.400Z,42.37
2022-09-17T01:52:40.489Z,42.28
2022-09-17T01:55:10.007Z,42.67
2022-09-17T01:57:39.847Z,42.62
2022-09-17T02:00:09.663Z,42.57
2022-09-17T02:02:43.905Z,42.56
2022-09-17T02:05:16.006Z,42.65
2022-09-17T02:07:46.284Z,42.55
2022-09-17T02:10:15.604Z,42.64
2022-09-17T02:12:46.811Z,42.65
2022-09-17T02:15:18.155Z,42.27
2022-09-17T02:17:49.619Z,42.69
2022-09-17T02:20:22.713Z,42.80
2022-09-17T02:22:53.621Z,42.84
2022-09-17T02:25:23.268Z,42.69
2022-09-17T02:27:53.921Z,42.69
2022-09-17T02:30:21.524Z,42.58
2022-09-17T02:32:50.968Z,42.90
2022-09-17T02:35:19.546Z,42.89
2022-09-17T02:37:47.097Z,42.70
2022-09-17T02:40:16.287Z,42.69
2022-09-17T02:42:53.611Z,42.85
2022-09-17T02:45:28.106Z,42.57
2022-09-17T02:48:07.364Z,42.88
2022-09-17T02:50:44.989Z,42.78
2022-09-17T02:53:20.769Z,42.93
2022-09-17T02:55:52.314Z,43.05
2022-09-17T02:58:24.795Z,43.08
2022-09-17T03:00:55.256Z,42.88
2022-09-17T03:03:27.609Z,42.81
2022-09-17T03:05:56.284Z,42.77
2022-09-17T03:08:29.863Z,42.78
2022-09-17T03:10:57.536Z,42.74
2022-09-17T03:13:25.217Z,42.96
2022-09-17T03:15:53.018Z,42.81
2022-09-17T03:18:20.713Z,42.71
2022-09-17T03:23:37.740Z,42.63
2022-09-17T03:26:05.635Z,43.03
2022-09-17T03:28:33.323Z,42.91
2022-09-17T03:31:01.707Z,43.17
2022-09-17T03:33:29.351Z,42.98
2022-09-17T03:35:56.953Z,42.76
2022-09-17T03:38:24.640Z,42.97
2022-09-17T03:41:00.335Z,42.79
2022-09-17T03:43:28.157Z,42.90
2022-09-17T03:45:56.486Z,42.82
2022-09-17T03:48:24.263Z,42.95
2022-09-17T03:50:51.942Z,42.87
2022-09-17T03:53:19.831Z,42.83
2022-09-17T03:55:47.567Z,42.91
2022-09-17T03:58:16.793Z,43.04
2022-09-17T04:00:44.439Z,43.13
2022-09-17T04:03:13.390Z,43.24
2022-09-17T04:05:41.066Z,43.44
2022-09-17T04:08:08.777Z,43.32
2022-09-17T04:10:36.407Z,42.91
2022-09-17T04:13:04.146Z,43.23
2022-09-17T04:15:33.108Z,43.18
2022-09-17T04:18:00.772Z,43.10
2022-09-17T04:20:29.055Z,43.24
2022-09-17T04:22:59.209Z,43.34
2022-09-17T04:25:26.833Z,43.14
2022-09-17T04:27:54.796Z,43.00
2022-09-17T04:30:23.121Z,43.30
2022-09-17T04:32:54.057Z,43.10
2022-09-17T04:35:23.158Z,43.02
2022-09-17T04:37:54.933Z,43.22
2022-09-17T04:40:23.664Z,43.12
2022-09-17T04:42:53.715Z,42.89
2022-09-17T04:45:22.015Z,43.27
2022-09-17T04:47:50.932Z,43.01
2022-09-17T04:50:20.108Z,43.02
2022-09-17T04:52:48.428Z,43.14
2022-09-17T04:55:16.854Z,43.25
2022-09-17T04:57:49.920Z,42.92
2022-09-17T05:00:18.932Z,43.21
2022-09-17T05:02:50.741Z,42.91
2022-09-17T05:05:20.311Z,42.90
2022-09-17T05:07:48.473Z,43.07
2022-09-17T05:10:18.078Z,43.05
2022-09-17T05:12:49.105Z,42.93
2022-09-17T05:15:19.769Z,43.15
2022-09-17T05:17:50.416Z,43.15
2022-09-17T05:20:18.794Z,43.13
2022-09-17T05:22:49.275Z,43.21
2022-09-17T05:25:17.977Z,43.16
2022-09-17T05:27:46.385Z,43.00
2022-09-17T05:30:15.694Z,43.16
2022-09-17T05:32:46.695Z,43.07
2022-09-17T05:35:15.705Z,43.19
2022-09-17T05:37:43.787Z,43.05
2022-09-17T05:40:19.078Z,43.15
2022-09-17T05:42:48.585Z,43.62
2022-09-17T05:45:16.730Z,43.25
2022-09-17T05:47:50.693Z,43.09
2022-09-17T05:50:19.410Z,43.24
2022-09-17T05:52:49.614Z,43.32
2022-09-17T05:55:22.455Z,43.55
2022-09-17T05:57:56.161Z,43.43
2022-09-17T06:00:30.116Z,43.25
2022-09-17T06:02:59.378Z,43.52
2022-09-17T06:05:27.486Z,43.33
2022-09-17T06:07:55.646Z,43.73
2022-09-17T06:10:29.439Z,43.37
2022-09-17T06:13:36.527Z,43.87
2022-09-17T06:16:22.155Z,44.02
2022-09-17T06:34:41.090Z,44.12
2022-09-17T06:44:27.073Z,44.20
2022-09-17T06:47:02.987Z,43.92
2022-09-17T06:49:37.414Z,43.54
2022-09-17T06:52:10.488Z,43.71
2022-09-17T06:54:52.990Z,43.86
2022-09-17T06:57:29.638Z,44.20
2022-09-17T07:00:05.976Z,44.64
2022-09-17T07:02:36.557Z,44.48
2022-09-17T07:05:04.175Z,44.81
2022-09-17T07:07:31.759Z,44.40
2022-09-17T07:10:00.690Z,44.50
2022-09-17T07:12:28.298Z,44.46
2022-09-17T07:14:55.909Z,44.86
2022-09-17T07:17:23.467Z,44.64
2022-09-17T07:19:51.027Z,44.97
2022-09-17T07:22:19.199Z,45.19
2022-09-17T07:24:46.979Z,45.60
2022-09-17T07:27:16.319Z,45.09
2022-09-17T07:29:44.215Z,45.56
2022-09-17T07:32:11.898Z,45.09
2022-09-17T07:34:39.695Z,45.24
2022-09-17T07:37:10.276Z,45.69
2022-09-17T07:39:38.031Z,45.36
2022-09-17T07:42:07.901Z,45.26
2022-09-17T07:44:37.121Z,45.20
2022-09-17T07:47:04.996Z,45.80
2022-09-17T07:49:32.626Z,45.63
2022-09-17T07:52:05.100Z,44.71
2022-09-17T07:54:33.312Z,45.22
2022-09-17T07:57:00.870Z,44.64
2022-09-17T07:59:28.497Z,44.82
2022-09-17T08:01:57.652Z,44.29
2022-09-17T08:04:25.491Z,44.01
2022-09-17T08:06:53.158Z,43.78
2022-09-17T08:09:21.065Z,43.02
2022-09-17T08:11:56.841Z,42.22
2022-09-17T08:14:29.430Z,42.41
2022-09-17T08:16:58.779Z,42.18
2022-09-17T08:19:26.977Z,41.74
2022-09-17T08:21:54.560Z,41.85
2022-09-17T08:24:22.188Z,41.39
2022-09-17T08:26:49.831Z,41.68
2022-09-17T08:29:17.415Z,40.69
2022-09-17T08:31:45.171Z,41.04
2022-09-17T08:34:14.581Z,40.98
2022-09-17T08:36:42.172Z,40.42
2022-09-17T08:39:12.037Z,40.50
2022-09-17T08:41:47.313Z,40.64
2022-09-17T08:44:19.125Z,40.67
2022-09-17T08:46:48.229Z,40.16
2022-09-17T08:49:24.071Z,40.37
2022-09-17T08:52:03.171Z,40.22
2022-09-17T08:54:36.838Z,40.18
2022-09-17T08:57:13.023Z,40.47
2022-09-17T08:59:45.873Z,40.07
2022-09-17T09:02:22.298Z,39.44
2022-09-17T09:05:02.170Z,39.90
2022-09-17T09:07:32.371Z,39.54
2022-09-17T09:10:06.353Z,39.64
2022-09-17T09:12:35.954Z,39.44
2022-09-17T09:15:05.634Z,40.06
2022-09-17T09:17:36.426Z,39.99
2022-09-17T09:20:06.566Z,39.83
2022-09-17T09:22:39.705Z,39.61
2022-09-17T09:25:14.629Z,39.92
2022-09-17T09:27:50.031Z,39.70
2022-09-17T09:30:23.449Z,39.47
2022-09-17T09:32:55.396Z,39.33
2022-09-17T09:35:25.462Z,39.18
2022-09-17T09:37:56.965Z,39.48
2022-09-17T09:40:31.753Z,39.01
2022-09-17T09:43:02.131Z,38.95
2022-09-17T09:45:39.021Z,39.46
2022-09-17T09:48:11.497Z,39.76
2022-09-17T09:51:05.579Z,39.37
2022-09-17T09:53:42.077Z,39.55
2022-09-17T09:56:19.328Z,39.38
2022-09-17T09:58:46.968Z,39.23
2022-09-17T10:01:15.628Z,38.99
2022-09-17T10:03:46.027Z,39.12
2022-09-17T10:06:15.661Z,38.51
2022-09-17T10:08:46.138Z,38.21
2022-09-17T10:11:21.253Z,37.82
2022-09-17T10:13:48.907Z,38.02
2022-09-17T10:16:17.854Z,38.38
2022-09-17T10:18:45.726Z,38.34
2022-09-17T10:21:22.128Z,37.97
2022-09-17T10:23:50.732Z,38.43
2022-09-17T10:26:23.646Z,38.27
2022-09-17T10:28:52.464Z,37.49
2022-09-17T10:31:20.202Z,37.71
2022-09-17T10:33:56.987Z,38.18
2022-09-17T10:36:40.257Z,38.31
2022-09-17T10:39:26.926Z,38.14
2022-09-17T10:41:55.234Z,37.93
2022-09-17T10:44:23.622Z,37.88
2022-09-17T10:46:52.276Z,37.90
2022-09-17T10:49:27.015Z,37.91
2022-09-17T10:52:04.825Z,37.82
2022-09-17T10:54:49.617Z,37.86
2022-09-17T10:57:22.756Z,37.94
2022-09-17T11:00:04.537Z,38.28
2022-09-17T11:02:43.634Z,38.35
2022-09-17T11:05:24.487Z,38.17
2022-09-17T11:08:01.553Z,38.42
2022-09-17T11:10:32.168Z,38.49
2022-09-17T11:13:07.965Z,38.68
2022-09-17T11:15:41.970Z,38.22
2022-09-17T11:18:28.557Z,38.38
2022-09-17T11:21:05.036Z,37.42
2022-09-17T11:23:43.543Z,38.08
2022-09-17T11:26:14.241Z,37.66
2022-09-17T11:28:48.197Z,37.66
2022-09-17T11:31:24.399Z,37.59
2022-09-17T11:34:02.578Z,36.96
2022-09-17T11:36:32.439Z,36.93
2022-09-17T11:39:07.216Z,37.08
2022-09-17T11:41:38.847Z,36.97
2022-09-17T11:44:10.237Z,36.73
2022-09-17T11:46:41.960Z,36.38
2022-09-17T11:49:13.686Z,36.57
2022-09-17T11:51:44.861Z,36.21
2022-09-17T11:54:21.841Z,36.71
2022-09-17T11:56:51.792Z,36.51
2022-09-17T11:59:21.245Z,36.79
2022-09-17T12:01:53.962Z,37.04
2022-09-17T12:04:30.154Z,37.40
2022-09-17T12:07:01.361Z,37.77
2022-09-17T12:09:33.112Z,37.31
2022-09-17T12:12:02.302Z,37.77
2022-09-17T12:14:32.100Z,37.76
2022-09-17T12:17:01.132Z,37.10
2022-09-17T12:19:32.588Z,37.71
2022-09-17T12:22:02.907Z,37.53
2022-09-17T12:24:32.282Z,36.95
2022-09-17T12:27:07.216Z,37.49
2022-09-17T12:29:44.992Z,36.98
2022-09-17T12:32:25.539Z,37.22
2022-09-17T12:34:58.113Z,36.87
2022-09-17T12:37:28.556Z,37.39
2022-09-17T12:40:23.362Z,37.23
2022-09-17T12:43:06.037Z,37.02
2022-09-17T12:45:37.448Z,37.23
2022-09-17T12:48:19.880Z,37.07
2022-09-17T12:50:52.636Z,37.18
2022-09-17T12:53:24.285Z,36.75
2022-09-17T12:55:59.473Z,36.92
2022-09-17T12:58:35.845Z,37.03
2022-09-17T13:01:05.787Z,37.70
2022-09-17T13:03:35.888Z,38.08
2022-09-17T13:06:21.950Z,38.06
2022-09-17T13:09:13.286Z,38.21
2022-09-17T13:11:59.817Z,38.14
2022-09-17T13:14:34.125Z,37.98
2022-09-17T13:17:06.181Z,38.21
2022-09-17T13:19:36.649Z,38.21
2022-09-17T13:22:07.004Z,38.08
2022-09-17T13:24:35.928Z,38.30
2022-09-17T13:27:04.904Z,38.43
2022-09-17T13:29:51.160Z,38.61
2022-09-17T13:32:33.657Z,39.11
2022-09-17T13:35:27.211Z,39.18
2022-09-17T13:37:57.518Z,38.92
2022-09-17T13:40:26.623Z,39.44
2022-09-17T13:42:56.326Z,39.16
2022-09-17T13:45:24.859Z,39.00
2022-09-17T13:47:54.225Z,39.27
2022-09-17T13:50:28.590Z,38.98
2022-09-17T13:52:56.999Z,39.18
2022-09-17T13:55:35.576Z,38.97
2022-09-17T13:58:04.979Z,39.49
2022-09-17T14:00:49.532Z,38.93
2022-09-17T14:03:37.185Z,39.01
2022-09-17T14:06:21.842Z,39.03
2022-09-17T14:08:54.487Z,38.89
2022-09-17T14:11:43.140Z,38.75
2022-09-17T14:14:40.713Z,38.88
2022-09-17T14:17:09.083Z,38.41
2022-09-17T14:19:45.750Z,37.84
2022-09-17T14:22:17.658Z,38.00
2022-09-17T14:24:52.481Z,37.97
2022-09-17T14:27:28.608Z,37.76
2022-09-17T14:30:13.706Z,37.63
2022-09-17T14:32:43.759Z,37.73
2022-09-17T14:35:19.939Z,38.31
2022-09-17T14:37:50.024Z,38.02
2022-09-17T14:40:20.463Z,38.37
2022-09-17T14:42:50.414Z,38.10
2022-09-17T14:45:20.298Z,38.05
2022-09-17T14:47:48.035Z,38.44
2022-09-17T14:50:21.081Z,38.11
2022-09-17T14:52:49.084Z,38.22
2022-09-17T14:55:17.727Z,38.05
2022-09-17T14:57:48.100Z,38.26
2022-09-17T15:00:21.826Z,38.20
2022-09-17T15:02:55.692Z,38.13
2022-09-17T15:05:26.147Z,38.46
2022-09-17T15:08:07.510Z,38.10
2022-09-17T15:10:37.270Z,38.00
2022-09-17T15:13:13.010Z,38.30
2022-09-17T15:15:40.733Z,37.91
2022-09-17T15:18:08.654Z,38.21
2022-09-17T15:20:36.469Z,38.25
2022-09-17T15:23:10.589Z,38.04
2022-09-17T15:25:39.408Z,38.19
2022-09-17T15:28:16.868Z,37.87
2022-09-17T15:30:46.491Z,37.80
2022-09-17T15:33:15.326Z,37.94
2022-09-17T15:35:58.917Z,37.57
2022-09-17T15:38:28.061Z,37.85
2022-09-17T15:40:55.768Z,37.66
2022-09-17T15:43:27.590Z,37.52
2022-09-17T15:45:55.710Z,37.95
2022-09-17T15:48:25.876Z,37.53
2022-09-17T15:50:54.381Z,37.33
2022-09-17T15:53:23.527Z,37.46
2022-09-17T15:56:03.766Z,37.71
2022-09-17T15:58:36.818Z,37.79
2022-09-17T16:01:48.484Z,37.39
2022-09-17T16:04:19.073Z,37.65
2022-09-17T16:06:49.230Z,37.17
2022-09-17T16:09:35.492Z,37.59
2022-09-17T16:12:03.191Z,37.18
2022-09-17T16:14:32.106Z,37.54
2022-09-17T16:16:59.824Z,37.50
2022-09-17T16:19:27.417Z,36.99
2022-09-17T16:21:55.143Z,37.00
2022-09-17T16:24:22.731Z,37.29
2022-09-17T16:26:50.416Z,36.76
2022-09-17T16:29:18.591Z,37.11
2022-09-17T16:31:47.715Z,37.03
2022-09-17T16:34:15.337Z,36.53
2022-09-17T16:36:43.082Z,37.07
2022-09-17T16:39:10.702Z,36.99
2022-09-17T16:41:38.468Z,36.84
2022-09-17T16:44:06.130Z,36.48
2022-09-17T16:46:33.984Z,36.83
2022-09-17T16:49:03.210Z,36.59
2022-09-17T16:51:31.000Z,36.75
2022-09-17T16:53:58.923Z,36.85
2022-09-17T16:56:26.562Z,36.89
2022-09-17T16:58:56.785Z,37.02
2022-09-17T17:01:24.518Z,36.99
2022-09-17T17:03:53.641Z,36.88
2022-09-17T17:06:22.813Z,36.50
2022-09-17T17:08:50.422Z,36.65
2022-09-17T17:11:18.620Z,36.90
2022-09-17T17:13:46.444Z,36.79
2022-09-17T17:16:15.358Z,36.97
2022-09-17T17:18:44.480Z,36.98
2022-09-17T17:21:13.072Z,36.65
2022-09-17T17:23:43.456Z,36.69
2022-09-17T17:26:11.112Z,36.60
2022-09-17T17:28:38.724Z,36.91
2022-09-17T17:31:06.874Z,36.57
2022-09-17T17:33:34.819Z,36.78
2022-09-17T17:36:07.505Z,36.48
2022-09-17T17:38:36.316Z,36.82
2022-09-17T17:41:07.024Z,36.41
2022-09-17T17:43:34.722Z,36.94
2022-09-17T17:46:02.791Z,36.96
2022-09-17T17:48:31.010Z,37.06
2022-09-17T17:51:02.238Z,36.82
2022-09-17T17:53:30.319Z,36.86
2022-09-17T17:55:58.908Z,36.48
2022-09-17T17:58:28.083Z,36.83
2022-09-17T18:00:55.822Z,36.80
2022-09-17T18:03:25.142Z,36.48
2022-09-17T18:05:54.025Z,36.80
2022-09-17T18:08:21.625Z,36.45
2022-09-17T18:10:52.621Z,36.93
2022-09-17T18:13:20.330Z,36.76
2022-09-17T18:15:55.906Z,36.47
2022-09-17T18:18:24.047Z,36.57
2022-09-17T18:20:53.276Z,36.47
2022-09-17T18:23:21.053Z,36.53
2022-09-17T18:25:55.519Z,36.77
2022-09-17T18:28:23.525Z,36.67
2022-09-17T18:30:51.146Z,36.65
2022-09-17T18:33:21.456Z,36.52
2022-09-17T18:35:49.222Z,36.79
2022-09-17T18:38:17.023Z,36.73
2022-09-17T18:40:45.031Z,36.95
2022-09-17T18:43:12.780Z,36.63
2022-09-17T20:04:07.049Z,40.01
2022-09-17T20:06:35.619Z,39.88
2022-09-17T20:09:03.731Z,39.12
2022-09-17T20:11:31.685Z,38.79
2022-09-17T20:14:02.974Z,39.07
2022-09-17T20:16:31.387Z,38.59
2022-09-17T20:18:59.689Z,38.45
2022-09-17T20:21:30.984Z,37.95
2022-09-17T20:23:59.759Z,38.32
2022-09-17T20:26:28.244Z,38.36
2022-09-17T20:28:56.257Z,38.07
2022-09-17T20:31:25.405Z,38.00
2022-09-17T20:33:54.417Z,38.16
2022-09-17T20:36:23.962Z,37.91
2022-09-17T20:41:42.249Z,38.57
2022-09-17T20:44:10.097Z,38.48
2022-09-17T20:46:38.143Z,38.08
2022-09-17T20:49:06.012Z,37.95
2022-09-17T20:51:34.101Z,38.05
2022-09-17T20:54:03.853Z,37.92
2022-09-17T20:56:34.265Z,38.38
2022-09-17T20:59:08.708Z,38.16
2022-09-17T21:01:38.030Z,38.50
2022-09-17T21:04:07.914Z,38.09
2022-09-17T21:06:37.714Z,38.31
2022-09-17T21:09:07.321Z,38.34
2022-09-17T21:11:35.871Z,38.38
2022-09-17T21:14:04.156Z,38.25
2022-09-17T21:16:32.424Z,38.09
2022-09-17T21:19:02.382Z,38.11
2022-09-17T21:21:34.377Z,38.60
2022-09-17T21:24:03.374Z,38.64
2022-09-17T21:26:33.336Z,38.72
2022-09-17T21:29:01.186Z,38.49
2022-09-17T21:31:32.621Z,38.54
2022-09-17T21:34:02.865Z,38.69
2022-09-17T21:36:32.926Z,38.61
2022-09-17T21:39:02.126Z,38.34
2022-09-17T21:41:30.871Z,38.29
2022-09-17T21:44:00.154Z,38.80
2022-09-17T21:46:29.453Z,38.32
2022-09-17T21:49:00.006Z,38.56
2022-09-17T21:51:30.581Z,38.68
2022-09-17T21:54:00.449Z,38.68
2022-09-17T21:56:29.444Z,38.88
2022-09-17T21:58:58.771Z,38.91
2022-09-17T22:01:31.110Z,39.21
2022-09-17T22:04:00.139Z,38.66
2022-09-17T22:06:30.385Z,38.85
2022-09-17T22:08:59.379Z,38.85
2022-09-17T22:11:30.001Z,39.44
2022-09-17T22:14:00.754Z,39.57
2022-09-17T22:16:30.754Z,39.63
2022-09-17T22:19:02.572Z,39.48
2022-09-17T22:21:32.979Z,39.03
2022-09-17T22:24:02.976Z,39.71
2022-09-17T22:26:33.051Z,39.34
2022-09-17T22:29:02.497Z,39.58
2022-09-17T22:31:32.114Z,39.92
2022-09-17T22:34:00.693Z,39.62
2022-09-17T22:36:29.240Z,39.52
2022-09-17T22:38:58.772Z,39.61
2022-09-17T22:41:28.692Z,39.52
2022-09-17T22:43:57.915Z,40.18
2022-09-17T22:46:27.572Z,40.22
2022-09-17T22:48:57.463Z,40.36
2022-09-17T22:51:26.877Z,40.27
2022-09-17T22:53:55.355Z,40.33
2022-09-17T22:56:24.314Z,40.58
2022-09-17T22:58:52.536Z,40.58
2022-09-17T23:01:22.226Z,40.41
2022-09-17T23:03:51.472Z,40.98
2022-09-17T23:06:23.757Z,40.86
2022-09-17T23:08:52.192Z,40.63
2022-09-17T23:11:22.660Z,40.56
2022-09-17T23:13:51.858Z,40.73
2022-09-17T23:16:20.796Z,41.02
2022-09-17T23:18:48.809Z,40.94
2022-09-17T23:21:18.152Z,40.96
2022-09-17T23:23:49.398Z,41.46
2022-09-17T23:26:19.774Z,41.06
2022-09-17T23:28:48.315Z,41.25
2022-09-17T23:31:17.750Z,41.49
2022-09-17T23:33:46.645Z,41.29
2022-09-17T23:36:16.344Z,41.60
2022-09-17T23:38:46.704Z,41.91
2022-09-17T23:41:17.722Z,41.59
2022-09-17T23:43:47.653Z,41.80
2022-09-17T23:46:16.265Z,41.53
2022-09-17T23:48:44.457Z,41.51
2022-09-17T23:51:12.282Z,41.53
2022-09-17T23:53:40.387Z,41.87
2022-09-17T23:56:13.256Z,42.54
2022-09-17T23:58:42.756Z,42.57
